Time;durP1;ratioP1;P1;durP2;ratioP2;P2;SDS_P1;SDS_P2;PMS_P1;PMS_P2;Temp;Humidity;BMP_temperature;BMP_pressure;BME280_temperature;BME280_humidity;BME280_pressure;Samples;Min_cycle;Max_cycle;Signal;HPM_P1;HPM_P2
2023/05/03 05:01:25;;;;;;;;;23.33;22.33;;;;;;;;5535827;22;45299;-58
2023/05/03 05:03:50;;;;;;;;;22.33;21.67;;;;;;;;5020550;28;47246;-58
2023/05/03 05:06:15;;;;;;;;;27.67;21.00;;;;;;;;5020521;28;45405;-58
2023/05/03 05:08:40;;;;;;;;;22.67;22.33;;;;;;;;5013854;28;45586;-58
2023/05/03 05:11:05;;;;;;;;;23.67;15.00;;;;;;;;5021141;28;46504;-58
2023/05/03 05:13:31;;;;;;;;;20.67;20.67;;;;;;;;5020299;28;46112;-58
2023/05/03 05:15:56;;;;;;;;;23.67;20.33;;;;;;;;5021440;28;45407;-58
2023/05/03 05:18:21;;;;;;;;;23.67;22.00;;;;;;;;5026210;28;45402;-58
2023/05/03 05:20:46;;;;;;;;;16.00;14.67;;;;;;;;5021308;28;45310;-58
2023/05/03 05:23:12;;;;;;;;;18.33;17.67;;;;;;;;5021115;28;46129;-58
2023/05/03 05:25:37;;;;;;;;;28.00;21.00;;;;;;;;5019733;28;45317;-58
2023/05/03 05:28:02;;;;;;;;;23.67;21.33;;;;;;;;5021243;28;45422;-58
2023/05/03 05:30:27;;;;;;;;;24.33;21.00;;;;;;;;5019694;28;45491;-58
2023/05/03 05:32:53;;;;;;;;;23.67;20.33;;;;;;;;5020904;28;46157;-53
2023/05/03 05:35:18;;;;;;;;;22.33;20.33;;;;;;;;5019170;28;45319;-54
2023/05/03 05:37:43;;;;;;;;;21.67;21.67;;;;;;;;5020961;28;45296;-54
2023/05/03 05:40:09;;;;;;;;;24.67;22.00;;;;;;;;5020265;28;45363;-55
2023/05/03 05:42:34;;;;;;;;;24.33;24.00;;;;;;;;5020166;28;46007;-56
2023/05/03 05:45:00;;;;;;;;;23.67;18.00;;;;;;;;5020356;28;45284;-56
2023/05/03 05:47:25;;;;;;;;;18.00;18.00;;;;;;;;5020346;28;45314;-54
2023/05/03 05:49:51;;;;;;;;;23.00;23.00;;;;;;;;5020892;28;45257;-54
2023/05/03 05:52:16;;;;;;;;;23.33;19.67;;;;;;;;5020529;28;45331;-53
2023/05/03 05:54:41;;;;;;;;;20.67;20.67;;;;;;;;5019079;28;45232;-54
2023/05/03 05:57:06;;;;;;;;;23.00;18.33;;;;;;;;5018887;28;45638;-53
2023/05/03 05:59:31;;;;;;;;;21.00;18.67;;;;;;;;5017450;28;45312;-55
2023/05/03 06:01:58;;;;;;;;;24.67;21.67;;;;;;;;5019717;28;46094;-54
2023/05/03 06:04:24;;;;;;;;;23.33;21.33;;;;;;;;5019896;28;45298;-55
2023/05/03 06:06:49;;;;;;;;;26.00;23.33;;;;;;;;5020467;28;45316;-55
2023/05/03 06:09:14;;;;;;;;;27.33;24.00;;;;;;;;5019875;28;45565;-54
2023/05/03 06:11:42;;;;;;;;;27.00;22.33;;;;;;;;5019897;28;45375;-55
2023/05/03 06:14:08;;;;;;;;;27.00;22.00;;;;;;;;5020000;28;45430;-55
2023/05/03 06:16:33;;;;;;;;;25.33;20.67;;;;;;;;5019530;28;45746;-55
2023/05/03 06:18:59;;;;;;;;;24.00;18.67;;;;;;;;5014805;28;45326;-55
2023/05/03 06:21:25;;;;;;;;;20.67;19.33;;;;;;;;5016788;28;45740;-55
2023/05/03 06:23:50;;;;;;;;;23.33;20.67;;;;;;;;5023374;28;45256;-54
2023/05/03 06:26:16;;;;;;;;;29.33;26.33;;;;;;;;5019906;28;45389;-64
2023/05/03 06:28:41;;;;;;;;;20.33;19.00;;;;;;;;5018450;28;45268;-63
2023/05/03 06:34:09;;;;;;;;;20.33;19.00;;;;;;;;5019413;28;45350;-64
2023/05/03 06:36:35;;;;;;;;;16.67;16.00;;;;;;;;5018173;28;45521;-62
2023/05/03 06:39:02;;;;;;;;;23.67;20.33;;;;;;;;5020088;28;45343;-61
2023/05/03 06:41:28;;;;;;;;;20.67;17.67;;;;;;;;5016962;28;45984;-61
2023/05/03 06:43:54;;;;;;;;;17.67;14.00;;;;;;;;5019561;28;45169;-62
2023/05/03 06:46:19;;;;;;;;;18.00;17.33;;;;;;;;5018572;28;45372;-61
2023/05/03 06:48:44;;;;;;;;;17.67;16.67;;;;;;;;5019085;28;46840;-61
2023/05/03 06:51:09;;;;;;;;;16.67;16.00;;;;;;;;5019720;28;46121;-61
2023/05/03 06:53:35;;;;;;;;;17.33;16.33;;;;;;;;5017970;28;45818;-61
2023/05/03 06:56:00;;;;;;;;;20.00;18.00;;;;;;;;5019685;28;45406;-61
2023/05/03 06:58:25;;;;;;;;;22.33;15.33;;;;;;;;5019321;28;45512;-62
2023/05/03 07:00:51;;;;;;;;;19.00;15.00;;;;;;;;5029592;28;45405;-64
2023/05/03 07:03:16;;;;;;;;;16.33;15.00;;;;;;;;5018984;28;45300;-62
2023/05/03 07:05:42;;;;;;;;;20.00;15.00;;;;;;;;5029548;28;45365;-61
2023/05/03 07:08:07;;;;;;;;;16.00;15.33;;;;;;;;5019749;28;45342;-61
2023/05/03 07:10:33;;;;;;;;;18.00;15.33;;;;;;;;5018981;28;46156;-62
2023/05/03 07:12:58;;;;;;;;;19.33;19.33;;;;;;;;5019195;28;45346;-61
2023/05/03 07:15:23;;;;;;;;;15.00;14.67;;;;;;;;5019414;28;45409;-61
2023/05/03 07:17:48;;;;;;;;;17.67;15.67;;;;;;;;5019540;28;45438;-61
2023/05/03 07:20:14;;;;;;;;;15.67;15.67;;;;;;;;5019302;28;47334;-61
2023/05/03 07:22:39;;;;;;;;;16.67;15.00;;;;;;;;5018885;28;45393;-60
2023/05/03 07:25:04;;;;;;;;;15.33;14.00;;;;;;;;5017216;28;45430;-60
2023/05/03 07:27:29;;;;;;;;;17.33;15.33;;;;;;;;5018809;28;45266;-61
2023/05/03 07:29:55;;;;;;;;;16.00;12.33;;;;;;;;5019129;28;45525;-60
2023/05/03 07:32:20;;;;;;;;;19.67;15.33;;;;;;;;5018442;28;45376;-61
2023/05/03 07:34:46;;;;;;;;;17.00;16.00;;;;;;;;5018533;28;45525;-58
2023/05/03 07:37:11;;;;;;;;;14.67;13.00;;;;;;;;5019177;28;45347;-60
2023/05/03 07:39:36;;;;;;;;;15.67;15.67;;;;;;;;5018459;28;46281;-60
2023/05/03 07:42:01;;;;;;;;;15.33;14.00;;;;;;;;5017574;28;45310;-61
2023/05/03 07:44:26;;;;;;;;;15.67;14.00;;;;;;;;5018660;28;45587;-61
2023/05/03 07:46:51;;;;;;;;;13.00;13.00;;;;;;;;5018092;28;45399;-60
2023/05/03 07:49:17;;;;;;;;;12.67;12.67;;;;;;;;5014786;28;45977;-60
2023/05/03 07:51:42;;;;;;;;;17.00;14.00;;;;;;;;5017982;28;45366;-61
2023/05/03 07:54:07;;;;;;;;;15.33;13.67;;;;;;;;5018897;28;45233;-60
2023/05/03 07:56:32;;;;;;;;;17.00;15.00;;;;;;;;5017016;28;45390;-60
2023/05/03 07:58:58;;;;;;;;;14.67;14.33;;;;;;;;5020463;28;45271;-60
2023/05/03 08:01:23;;;;;;;;;13.67;12.67;;;;;;;;5021412;28;45294;-61
2023/05/03 08:03:49;;;;;;;;;20.33;14.67;;;;;;;;5022210;28;45437;-60
2023/05/03 08:06:15;;;;;;;;;13.33;13.33;;;;;;;;5022323;28;45319;-60
2023/05/03 08:08:41;;;;;;;;;15.67;13.33;;;;;;;;5021664;28;46002;-61
2023/05/03 08:11:06;;;;;;;;;14.33;12.67;;;;;;;;5022077;28;45353;-61
2023/05/03 08:13:32;;;;;;;;;14.00;12.67;;;;;;;;5021584;28;45521;-61
2023/05/03 08:15:57;;;;;;;;;14.33;14.33;;;;;;;;5022225;28;45317;-61
2023/05/03 08:18:22;;;;;;;;;15.00;15.00;;;;;;;;5021141;28;45461;-61
2023/05/03 08:20:48;;;;;;;;;14.67;14.67;;;;;;;;5021960;28;45294;-60
2023/05/03 08:23:13;;;;;;;;;17.67;15.67;;;;;;;;5022116;28;45816;-61
2023/05/03 08:25:38;;;;;;;;;14.67;12.67;;;;;;;;5021531;28;45933;-61
2023/05/03 08:28:03;;;;;;;;;15.33;13.33;;;;;;;;5021847;28;45432;-61
2023/05/03 08:30:29;;;;;;;;;16.00;14.00;;;;;;;;5021298;28;45365;-61
2023/05/03 08:32:54;;;;;;;;;12.67;12.67;;;;;;;;5021815;28;45499;-61
2023/05/03 08:35:20;;;;;;;;;12.67;11.33;;;;;;;;5021223;28;45296;-61
2023/05/03 08:37:45;;;;;;;;;16.33;16.00;;;;;;;;5021653;28;45437;-60
2023/05/03 08:40:12;;;;;;;;;14.33;14.33;;;;;;;;5021608;28;45364;-61
2023/05/03 08:42:38;;;;;;;;;14.33;12.33;;;;;;;;5021268;28;45407;-61
2023/05/03 08:45:03;;;;;;;;;15.33;12.00;;;;;;;;5020650;28;45188;-60
2023/05/03 08:47:32;;;;;;;;;14.67;13.67;;;;;;;;5018811;28;46385;-59
2023/05/03 08:49:58;;;;;;;;;14.33;13.00;;;;;;;;5021380;28;45375;-60
2023/05/03 08:52:23;;;;;;;;;13.00;11.33;;;;;;;;5020027;28;45378;-59
2023/05/03 08:54:49;;;;;;;;;12.00;12.00;;;;;;;;5013639;28;45461;-59
2023/05/03 08:57:15;;;;;;;;;10.67;10.67;;;;;;;;5021105;28;46051;-59
2023/05/03 08:59:52;;;;;;;;;12.00;12.00;;;;;;;;5019808;28;45556;-60
2023/05/03 09:02:17;;;;;;;;;12.67;11.33;;;;;;;;5020986;28;45397;-59
2023/05/03 09:04:43;;;;;;;;;8.67;8.00;;;;;;;;5020908;28;45480;-60
2023/05/03 09:07:09;;;;;;;;;8.67;8.67;;;;;;;;5019867;28;47381;-60
2023/05/03 09:09:34;;;;;;;;;12.00;10.33;;;;;;;;5020403;28;45255;-59
2023/05/03 09:12:00;;;;;;;;;12.33;11.67;;;;;;;;5021183;28;45390;-59
2023/05/03 09:14:25;;;;;;;;;11.33;10.67;;;;;;;;5020748;28;45590;-59
2023/05/03 09:16:50;;;;;;;;;10.33;10.33;;;;;;;;5020770;28;46342;-59
2023/05/03 09:19:16;;;;;;;;;12.33;11.00;;;;;;;;5020991;28;45243;-59
2023/05/03 09:21:44;;;;;;;;;10.33;9.67;;;;;;;;5020781;28;45450;-59
2023/05/03 09:24:14;;;;;;;;;11.67;11.67;;;;;;;;5021126;28;45354;-58
2023/05/03 09:26:39;;;;;;;;;15.00;12.00;;;;;;;;5020425;28;45393;-58
2023/05/03 09:29:05;;;;;;;;;12.00;12.00;;;;;;;;5020599;28;45424;-59
2023/05/03 09:31:31;;;;;;;;;11.33;9.33;;;;;;;;5020275;28;45779;-59
2023/05/03 09:33:57;;;;;;;;;12.33;12.33;;;;;;;;5020768;28;45366;-59
2023/05/03 09:36:22;;;;;;;;;12.33;11.00;;;;;;;;5013682;28;46490;-59
2023/05/03 09:38:48;;;;;;;;;13.33;13.33;;;;;;;;5019482;28;45946;-59
2023/05/03 09:41:13;;;;;;;;;11.67;11.67;;;;;;;;5020580;28;45469;-59
2023/05/03 09:43:49;;;;;;;;;13.67;13.67;;;;;;;;5020173;28;45367;-60
2023/05/03 09:46:14;;;;;;;;;12.00;11.33;;;;;;;;5020340;28;46261;-59
2023/05/03 09:48:39;;;;;;;;;14.33;12.00;;;;;;;;5020139;28;45449;-59
2023/05/03 09:51:05;;;;;;;;;12.25;12.00;;;;;;;;5020732;28;45375;-60
2023/05/03 09:53:31;;;;;;;;;13.67;11.00;;;;;;;;5020133;28;45426;-60
2023/05/03 09:55:56;;;;;;;;;13.67;10.67;;;;;;;;5020212;28;45304;-59
2023/05/03 09:58:23;;;;;;;;;11.67;11.33;;;;;;;;5020207;28;46439;-60
2023/05/03 10:00:50;;;;;;;;;13.00;12.00;;;;;;;;5013553;28;45513;-59
2023/05/03 10:03:18;;;;;;;;;10.00;10.00;;;;;;;;5028383;28;45456;-60
2023/05/03 10:05:48;;;;;;;;;14.00;14.00;;;;;;;;5020242;28;45302;-60
2023/05/03 10:08:18;;;;;;;;;11.00;11.00;;;;;;;;5020382;28;45438;-59
2023/05/03 10:10:44;;;;;;;;;12.67;11.33;;;;;;;;5019066;28;45463;-60
2023/05/03 10:13:10;;;;;;;;;14.67;12.67;;;;;;;;5018892;28;45393;-60
2023/05/03 10:15:36;;;;;;;;;9.00;9.00;;;;;;;;5019690;28;45383;-60
2023/05/03 10:18:05;;;;;;;;;10.00;9.00;;;;;;;;5019853;28;45418;-60
2023/05/03 10:20:39;;;;;;;;;10.67;9.33;;;;;;;;5019418;28;45283;-60
2023/05/03 10:23:05;;;;;;;;;12.50;10.75;;;;;;;;5022274;28;45987;-61
2023/05/03 10:25:31;;;;;;;;;9.50;9.50;;;;;;;;5014720;28;46535;-61
2023/05/03 10:28:03;;;;;;;;;7.75;7.75;;;;;;;;5020041;28;45367;-61
2023/05/03 10:30:33;;;;;;;;;10.00;8.33;;;;;;;;5019652;28;45469;-60
2023/05/03 10:32:59;;;;;;;;;12.00;12.00;;;;;;;;5019698;28;45434;-61
2023/05/03 10:35:27;;;;;;;;;11.75;10.50;;;;;;;;5019429;28;45918;-60
2023/05/03 10:37:55;;;;;;;;;8.00;8.00;;;;;;;;5014470;28;45258;-61
2023/05/03 10:40:21;;;;;;;;;8.67;8.67;;;;;;;;5018101;28;45415;-61
2023/05/03 10:42:55;;;;;;;;;10.50;10.50;;;;;;;;5019824;28;45458;-60
2023/05/03 10:45:21;;;;;;;;;10.75;9.50;;;;;;;;5019508;28;45515;-60
2023/05/03 10:48:05;;;;;;;;;8.67;7.33;;;;;;;;5019366;28;45453;-61
2023/05/03 10:50:30;;;;;;;;;9.33;9.33;;;;;;;;5015542;28;45371;-60
2023/05/03 10:52:55;;;;;;;;;8.25;8.25;;;;;;;;5019787;28;45596;-60
2023/05/03 10:55:23;;;;;;;;;12.00;10.00;;;;;;;;5018956;28;46151;-61
2023/05/03 10:57:52;;;;;;;;;12.00;10.75;;;;;;;;5019450;28;45394;-60
2023/05/03 11:00:37;;;;;;;;;11.25;10.00;;;;;;;;5014819;28;45354;-60
2023/05/03 11:03:02;;;;;;;;;8.67;8.67;;;;;;;;5017802;28;45439;-61
2023/05/03 11:05:29;;;;;;;;;8.00;8.00;;;;;;;;5018846;28;46110;-61
2023/05/03 11:08:11;;;;;;;;;8.00;8.00;;;;;;;;5019620;28;45433;-60
2023/05/03 11:10:36;;;;;;;;;11.00;10.67;;;;;;;;5018815;28;45410;-61
2023/05/03 11:13:01;;;;;;;;;8.33;8.33;;;;;;;;5019435;28;45458;-61
2023/05/03 11:15:26;;;;;;;;;8.00;8.00;;;;;;;;5018777;28;45212;-60
2023/05/03 11:17:52;;;;;;;;;7.67;7.67;;;;;;;;5019077;28;45324;-61
2023/05/03 11:20:17;;;;;;;;;8.75;7.75;;;;;;;;5019382;28;45513;-60
2023/05/03 11:22:43;;;;;;;;;9.67;9.67;;;;;;;;5018922;28;45620;-61
2023/05/03 11:25:09;;;;;;;;;8.50;6.75;;;;;;;;5019184;28;45638;-61
2023/05/03 11:27:34;;;;;;;;;9.25;8.75;;;;;;;;5018809;28;45303;-61
2023/05/03 11:30:00;;;;;;;;;9.00;9.00;;;;;;;;5018979;28;45208;-61
2023/05/03 11:32:26;;;;;;;;;9.50;7.25;;;;;;;;5018391;28;45412;-62
2023/05/03 11:34:51;;;;;;;;;6.75;6.75;;;;;;;;5018994;28;45341;-62
2023/05/03 11:37:16;;;;;;;;;8.50;8.00;;;;;;;;5018308;28;45271;-62
2023/05/03 11:39:41;;;;;;;;;9.50;7.00;;;;;;;;5014091;28;45508;-61
2023/05/03 11:42:07;;;;;;;;;8.25;7.00;;;;;;;;5017447;28;45488;-61
2023/05/03 11:44:32;;;;;;;;;8.00;8.00;;;;;;;;5018710;28;46073;-62
2023/05/03 11:46:58;;;;;;;;;8.50;7.00;;;;;;;;5017128;28;45332;-62
2023/05/03 11:49:23;;;;;;;;;9.75;9.75;;;;;;;;5018224;28;45407;-62
2023/05/03 11:51:49;;;;;;;;;7.75;6.25;;;;;;;;5019052;28;45458;-61
2023/05/03 11:54:14;;;;;;;;;8.33;8.33;;;;;;;;5018897;28;45465;-61
2023/05/03 11:56:40;;;;;;;;;13.00;9.00;;;;;;;;5018011;28;45393;-61
2023/05/03 11:59:05;;;;;;;;;9.50;7.75;;;;;;;;5017205;28;45412;-62
2023/05/03 12:01:30;;;;;;;;;9.00;8.67;;;;;;;;5017812;28;45374;-61
2023/05/03 12:04:00;;;;;;;;;6.25;5.50;;;;;;;;5028820;28;47159;-61
2023/05/03 12:06:27;;;;;;;;;6.75;6.75;;;;;;;;5018289;28;45233;-62
2023/05/03 12:08:53;;;;;;;;;8.50;8.50;;;;;;;;5018835;28;45428;-62
2023/05/03 12:11:18;;;;;;;;;8.25;6.00;;;;;;;;5016790;28;45447;-61
2023/05/03 12:13:43;;;;;;;;;8.25;8.25;;;;;;;;5018409;28;45314;-61
2023/05/03 12:16:10;;;;;;;;;11.00;11.00;;;;;;;;5018144;28;45331;-62
2023/05/03 12:18:45;;;;;;;;;9.33;9.00;;;;;;;;5018282;28;45282;-61
2023/05/03 12:21:11;;;;;;;;;5.67;4.67;;;;;;;;5018368;28;45384;-62
2023/05/03 12:23:36;;;;;;;;;7.75;7.75;;;;;;;;5017613;28;45394;-61
2023/05/03 12:26:01;;;;;;;;;9.00;7.25;;;;;;;;5018639;28;45220;-61
2023/05/03 12:28:26;;;;;;;;;8.25;8.25;;;;;;;;5016931;28;45369;-62
2023/05/03 12:30:52;;;;;;;;;9.00;8.00;;;;;;;;5018184;28;45283;-61
2023/05/03 12:33:18;;;;;;;;;9.50;8.50;;;;;;;;5012226;28;46199;-61
2023/05/03 12:35:44;;;;;;;;;10.00;7.00;;;;;;;;5016839;28;45697;-61
2023/05/03 12:38:09;;;;;;;;;9.33;9.33;;;;;;;;5018288;28;45545;-61
2023/05/03 12:40:34;;;;;;;;;8.33;5.33;;;;;;;;5017709;28;45290;-61
2023/05/03 12:43:00;;;;;;;;;6.00;6.00;;;;;;;;5018011;28;46016;-61
2023/05/03 12:45:26;;;;;;;;;9.67;8.33;;;;;;;;5020194;28;45394;-61
2023/05/03 12:47:51;;;;;;;;;6.67;5.33;;;;;;;;5021444;28;45503;-61
2023/05/03 12:50:17;;;;;;;;;9.00;8.00;;;;;;;;5021624;28;45469;-61
2023/05/03 12:52:42;;;;;;;;;8.33;8.00;;;;;;;;5021341;28;45391;-61
2023/05/03 12:55:08;;;;;;;;;9.00;8.67;;;;;;;;5021541;28;45369;-62
2023/05/03 12:57:33;;;;;;;;;11.33;10.33;;;;;;;;5019868;28;46140;-62
2023/05/03 12:59:58;;;;;;;;;8.00;7.33;;;;;;;;5021721;28;45322;-63
2023/05/03 13:02:24;;;;;;;;;9.67;8.67;;;;;;;;5020303;28;46432;-62
2023/05/03 13:04:54;;;;;;;;;7.00;7.00;;;;;;;;5021310;28;45988;-62
2023/05/03 13:07:20;;;;;;;;;7.50;7.50;;;;;;;;5019739;28;45463;-62
2023/05/03 13:09:46;;;;;;;;;10.00;9.00;;;;;;;;5021368;28;46024;-62
2023/05/03 13:12:11;;;;;;;;;8.67;8.33;;;;;;;;5020901;28;45343;-62
2023/05/03 13:14:37;;;;;;;;;9.00;9.00;;;;;;;;5020786;28;45554;-62
2023/05/03 13:17:03;;;;;;;;;8.00;8.00;;;;;;;;5019417;28;45718;-62
2023/05/03 13:19:28;;;;;;;;;7.67;7.00;;;;;;;;5021128;28;45344;-62
2023/05/03 13:21:54;;;;;;;;;11.00;9.00;;;;;;;;5020899;28;45385;-62
2023/05/03 13:24:19;;;;;;;;;10.00;8.00;;;;;;;;5020541;28;45255;-63
2023/05/03 13:26:44;;;;;;;;;7.67;7.33;;;;;;;;5020864;28;45449;-62
2023/05/03 13:29:09;;;;;;;;;9.33;8.67;;;;;;;;5021204;28;45236;-63
2023/05/03 13:31:35;;;;;;;;;9.00;7.00;;;;;;;;5020142;28;45878;-62
2023/05/03 13:34:00;;;;;;;;;7.00;7.00;;;;;;;;5020930;28;45378;-63
2023/05/03 13:36:26;;;;;;;;;10.33;10.33;;;;;;;;5020596;28;45314;-62
2023/05/03 13:38:52;;;;;;;;;5.67;5.67;;;;;;;;5020852;28;45470;-63
2023/05/03 13:41:17;;;;;;;;;8.00;7.00;;;;;;;;5030949;28;45968;-63
2023/05/03 13:43:42;;;;;;;;;7.00;7.00;;;;;;;;5019120;28;45407;-62
2023/05/03 13:46:08;;;;;;;;;7.33;7.33;;;;;;;;5016617;28;45379;-63
2023/05/03 13:48:33;;;;;;;;;8.00;7.33;;;;;;;;5020282;28;45652;-62
2023/05/03 13:50:58;;;;;;;;;4.00;4.00;;;;;;;;5020851;28;45436;-62
2023/05/03 13:53:24;;;;;;;;;8.00;6.00;;;;;;;;5020095;28;45184;-63
2023/05/03 13:55:49;;;;;;;;;6.33;6.33;;;;;;;;5014191;28;45371;-63
2023/05/03 13:58:14;;;;;;;;;8.00;5.00;;;;;;;;5020605;28;45240;-63
2023/05/03 14:00:39;;;;;;;;;8.67;7.00;;;;;;;;5019634;28;46185;-62
2023/05/03 14:03:05;;;;;;;;;12.00;7.00;;;;;;;;5020421;28;45388;-63
2023/05/03 14:05:31;;;;;;;;;9.67;8.33;;;;;;;;5020092;28;45478;-63
2023/05/03 14:07:57;;;;;;;;;6.67;6.00;;;;;;;;5020506;28;45473;-63
2023/05/03 14:10:22;;;;;;;;;8.00;8.00;;;;;;;;5023200;28;47067;-63
2023/05/03 14:12:47;;;;;;;;;7.00;6.00;;;;;;;;5019085;28;45766;-63
2023/05/03 14:15:13;;;;;;;;;6.33;5.00;;;;;;;;5020358;28;45326;-63
2023/05/03 14:17:39;;;;;;;;;7.00;7.00;;;;;;;;5018350;28;45315;-63
2023/05/03 14:20:08;;;;;;;;;10.00;7.33;;;;;;;;5020029;28;45324;-63
2023/05/03 14:22:34;;;;;;;;;6.33;6.33;;;;;;;;5019550;28;45449;-63
2023/05/03 14:25:00;;;;;;;;;7.33;7.33;;;;;;;;5015304;28;45241;-62
2023/05/03 14:27:25;;;;;;;;;13.00;10.00;;;;;;;;5019556;28;45608;-62
2023/05/03 14:29:50;;;;;;;;;9.00;7.67;;;;;;;;5019940;28;45486;-63
2023/05/03 14:32:16;;;;;;;;;5.33;5.33;;;;;;;;5019546;28;45426;-63
2023/05/03 14:34:41;;;;;;;;;7.33;6.00;;;;;;;;5019724;28;45614;-63
2023/05/03 14:37:07;;;;;;;;;7.67;7.67;;;;;;;;5018770;28;45338;-63
2023/05/03 14:39:32;;;;;;;;;8.00;6.00;;;;;;;;5019397;28;46020;-62
2023/05/03 14:41:57;;;;;;;;;5.33;5.33;;;;;;;;5019615;28;45736;-63
2023/05/03 14:44:22;;;;;;;;;7.00;7.00;;;;;;;;5019778;28;45520;-63
2023/05/03 14:46:47;;;;;;;;;11.00;7.67;;;;;;;;5015778;28;45466;-63
2023/05/03 14:49:13;;;;;;;;;8.33;6.33;;;;;;;;5029178;28;46932;-63
2023/05/03 14:51:38;;;;;;;;;9.00;8.00;;;;;;;;5019031;28;45332;-62
2023/05/03 14:54:03;;;;;;;;;11.67;7.67;;;;;;;;5019747;28;45371;-63
2023/05/03 14:56:31;;;;;;;;;6.00;6.00;;;;;;;;5019177;28;45330;-62
2023/05/03 14:58:56;;;;;;;;;4.00;3.67;;;;;;;;5019592;28;46160;-63
2023/05/03 15:01:21;;;;;;;;;7.00;7.00;;;;;;;;5018591;28;45516;-62
2023/05/03 15:03:46;;;;;;;;;5.00;5.00;;;;;;;;5019483;28;45461;-62
2023/05/03 15:06:12;;;;;;;;;6.00;6.00;;;;;;;;5030210;28;45540;-62
2023/05/03 15:08:40;;;;;;;;;4.33;4.33;;;;;;;;5018546;28;46121;-62
2023/05/03 15:11:06;;;;;;;;;4.33;4.00;;;;;;;;5019128;28;45299;-63
2023/05/03 15:13:32;;;;;;;;;5.00;5.00;;;;;;;;5018812;28;45701;-62
2023/05/03 15:15:57;;;;;;;;;5.00;5.00;;;;;;;;5018953;28;45375;-62
2023/05/03 15:18:23;;;;;;;;;6.33;5.00;;;;;;;;5018810;28;45490;-62
2023/05/03 15:20:48;;;;;;;;;5.00;5.00;;;;;;;;5018923;28;45502;-62
2023/05/03 15:23:13;;;;;;;;;4.00;4.00;;;;;;;;5019423;28;45321;-62
2023/05/03 15:25:39;;;;;;;;;5.00;5.00;;;;;;;;5018668;28;45437;-63
2023/05/03 15:28:04;;;;;;;;;4.00;4.00;;;;;;;;5019096;28;45334;-62
2023/05/03 15:30:29;;;;;;;;;7.67;6.00;;;;;;;;5013333;28;45335;-63
2023/05/03 15:32:54;;;;;;;;;4.00;4.00;;;;;;;;5018897;28;45378;-62
2023/05/03 15:35:20;;;;;;;;;3.00;3.00;;;;;;;;5018358;28;45537;-61
2023/05/03 15:37:45;;;;;;;;;4.00;4.00;;;;;;;;5017138;28;47418;-61
2023/05/03 15:40:12;;;;;;;;;6.00;3.67;;;;;;;;5018990;28;45346;-63
2023/05/03 15:42:37;;;;;;;;;5.00;3.33;;;;;;;;5018552;28;45339;-64
2023/05/03 15:45:03;;;;;;;;;5.67;4.67;;;;;;;;5018858;28;45204;-61
2023/05/03 15:47:28;;;;;;;;;5.67;5.67;;;;;;;;5018045;28;46447;-62
2023/05/03 15:49:55;;;;;;;;;5.00;5.00;;;;;;;;5018964;28;45347;-61
2023/05/03 15:52:22;;;;;;;;;4.67;4.67;;;;;;;;5018509;28;45283;-62
2023/05/03 15:54:47;;;;;;;;;6.33;4.33;;;;;;;;5010212;28;45496;-62
2023/05/03 15:57:12;;;;;;;;;4.33;4.00;;;;;;;;5017245;28;46141;-62
2023/05/03 15:59:37;;;;;;;;;3.67;3.00;;;;;;;;5008469;28;45421;-63
2023/05/03 16:02:03;;;;;;;;;4.00;4.00;;;;;;;;5017848;28;45922;-62
2023/05/03 16:04:28;;;;;;;;;2.00;2.00;;;;;;;;5018511;28;45542;-62
2023/05/03 16:06:53;;;;;;;;;4.00;4.00;;;;;;;;5013295;28;45303;-62
2023/05/03 16:09:20;;;;;;;;;5.67;4.00;;;;;;;;5013357;28;45418;-62
2023/05/03 16:11:45;;;;;;;;;4.00;4.00;;;;;;;;5011394;28;45303;-63
2023/05/03 16:14:10;;;;;;;;;6.00;5.67;;;;;;;;5010929;28;45310;-62
2023/05/03 16:16:37;;;;;;;;;3.00;3.00;;;;;;;;5018095;28;46132;-63
2023/05/03 16:19:03;;;;;;;;;6.00;4.00;;;;;;;;5018384;28;45531;-63
2023/05/03 16:21:30;;;;;;;;;4.33;4.00;;;;;;;;5016731;28;45289;-64
2023/05/03 16:23:56;;;;;;;;;4.00;4.00;;;;;;;;5018402;28;45556;-61
2023/05/03 16:26:21;;;;;;;;;5.67;4.00;;;;;;;;5020106;28;46130;-61
2023/05/03 16:28:46;;;;;;;;;4.00;4.00;;;;;;;;5016475;28;45386;-61
2023/05/03 16:31:11;;;;;;;;;6.67;4.00;;;;;;;;5021283;28;45397;-61
2023/05/03 16:33:37;;;;;;;;;5.00;4.00;;;;;;;;5017927;28;45763;-61
2023/05/03 16:36:02;;;;;;;;;4.00;4.00;;;;;;;;5020917;28;45482;-61
2023/05/03 16:38:29;;;;;;;;;6.00;4.00;;;;;;;;5020948;28;45290;-62
2023/05/03 16:40:57;;;;;;;;;3.00;3.00;;;;;;;;5017719;28;45359;-62
2023/05/03 16:43:22;;;;;;;;;4.33;4.33;;;;;;;;5017720;28;45732;-61
2023/05/03 16:45:54;;;;;;;;;7.67;5.00;;;;;;;;5020573;28;45412;-61
2023/05/03 16:48:20;;;;;;;;;4.67;4.67;;;;;;;;5002893;28;45809;-61
2023/05/03 16:50:45;;;;;;;;;3.00;3.00;;;;;;;;5021525;28;45434;-61
2023/05/03 16:53:11;;;;;;;;;5.00;4.00;;;;;;;;5021688;28;45497;-63
2023/05/03 16:55:36;;;;;;;;;3.00;3.00;;;;;;;;5017934;28;45899;-63
2023/05/03 16:58:01;;;;;;;;;4.67;4.67;;;;;;;;5020987;28;45516;-60
2023/05/03 17:00:27;;;;;;;;;5.00;5.00;;;;;;;;5019106;28;45533;-64
2023/05/03 17:02:53;;;;;;;;;6.00;5.00;;;;;;;;5019012;28;45402;-63
2023/05/03 17:05:19;;;;;;;;;6.33;4.67;;;;;;;;5021312;28;45893;-61
2023/05/03 17:07:44;;;;;;;;;6.33;6.00;;;;;;;;5020974;28;45508;-62
2023/05/03 17:10:11;;;;;;;;;4.33;4.33;;;;;;;;5010619;28;45224;-61
2023/05/03 17:12:36;;;;;;;;;4.67;4.67;;;;;;;;5020249;28;45351;-61
2023/05/03 17:15:02;;;;;;;;;6.00;4.33;;;;;;;;5033296;28;48077;-61
2023/05/03 17:17:27;;;;;;;;;4.00;4.00;;;;;;;;5023074;28;45323;-62
2023/05/03 17:19:53;;;;;;;;;4.33;4.33;;;;;;;;5015856;28;45358;-61
2023/05/03 17:22:18;;;;;;;;;6.00;5.00;;;;;;;;5019844;28;45700;-62
2023/05/03 17:24:43;;;;;;;;;3.00;3.00;;;;;;;;5019693;28;46456;-61
2023/05/03 17:27:08;;;;;;;;;3.67;3.67;;;;;;;;5020983;28;45293;-63
2023/05/03 17:29:34;;;;;;;;;6.00;4.00;;;;;;;;5020867;28;45598;-61
2023/05/03 17:31:59;;;;;;;;;7.00;6.00;;;;;;;;5015762;28;45413;-62
2023/05/03 17:34:24;;;;;;;;;5.00;5.00;;;;;;;;5018776;28;47073;-63
2023/05/03 17:36:50;;;;;;;;;2.67;2.67;;;;;;;;5020335;28;45332;-63
2023/05/03 17:39:15;;;;;;;;;4.00;4.00;;;;;;;;5020549;28;45387;-62
2023/05/03 17:41:40;;;;;;;;;4.00;4.00;;;;;;;;5016421;28;45398;-62
2023/05/03 17:44:06;;;;;;;;;2.67;2.67;;;;;;;;5020029;28;45509;-62
2023/05/03 17:46:31;;;;;;;;;2.67;2.67;;;;;;;;5012964;28;45410;-63
2023/05/03 17:48:57;;;;;;;;;4.33;4.33;;;;;;;;5019423;28;45573;-63
2023/05/03 17:51:23;;;;;;;;;8.00;5.00;;;;;;;;5019131;28;45399;-63
2023/05/03 17:53:48;;;;;;;;;5.00;4.00;;;;;;;;5016466;28;45300;-64
2023/05/03 17:56:14;;;;;;;;;4.00;4.00;;;;;;;;5020194;28;45222;-63
2023/05/03 17:58:40;;;;;;;;;3.33;3.33;;;;;;;;5019940;28;45383;-63
2023/05/03 18:01:06;;;;;;;;;4.33;4.33;;;;;;;;5020042;28;45263;-62
2023/05/03 18:03:32;;;;;;;;;6.67;4.67;;;;;;;;5019977;28;45388;-64
2023/05/03 18:05:58;;;;;;;;;3.67;3.00;;;;;;;;5019164;28;45363;-63
2023/05/03 18:08:23;;;;;;;;;4.00;4.00;;;;;;;;5020310;28;45390;-63
2023/05/03 18:10:49;;;;;;;;;4.33;4.00;;;;;;;;5019298;28;45563;-63
2023/05/03 18:13:14;;;;;;;;;4.00;4.00;;;;;;;;5020242;28;46976;-64
2023/05/03 18:15:39;;;;;;;;;4.00;4.00;;;;;;;;5019460;28;45350;-65
2023/05/03 18:18:05;;;;;;;;;4.33;4.33;;;;;;;;5025067;28;46478;-64
2023/05/03 18:20:30;;;;;;;;;3.33;3.33;;;;;;;;5020005;28;45326;-64
2023/05/03 18:22:56;;;;;;;;;4.33;4.33;;;;;;;;5020257;28;47305;-64
2023/05/03 18:25:21;;;;;;;;;5.00;5.00;;;;;;;;5018618;28;45517;-63
2023/05/03 18:27:46;;;;;;;;;4.67;4.00;;;;;;;;5017548;28;45452;-63
2023/05/03 18:30:12;;;;;;;;;5.33;5.00;;;;;;;;5019732;28;45564;-63
2023/05/03 18:32:37;;;;;;;;;3.67;3.33;;;;;;;;5018971;28;45386;-64
2023/05/03 18:35:02;;;;;;;;;6.33;6.00;;;;;;;;5019775;28;45220;-64
2023/05/03 18:37:27;;;;;;;;;5.00;5.00;;;;;;;;5019896;28;45830;-64
2023/05/03 18:39:53;;;;;;;;;5.33;5.33;;;;;;;;5019912;28;45428;-63
2023/05/03 18:42:19;;;;;;;;;3.67;3.67;;;;;;;;5018375;28;46140;-64
2023/05/03 18:44:44;;;;;;;;;3.00;3.00;;;;;;;;5019804;28;46207;-64
2023/05/03 18:47:12;;;;;;;;;3.67;3.67;;;;;;;;5019307;28;45200;-64
2023/05/03 18:49:37;;;;;;;;;4.33;4.00;;;;;;;;5019389;28;45559;-64
2023/05/03 18:52:04;;;;;;;;;5.00;5.00;;;;;;;;5018500;28;45476;-63
2023/05/03 18:54:29;;;;;;;;;5.33;5.33;;;;;;;;5019604;28;45422;-64
2023/05/03 18:56:54;;;;;;;;;4.33;4.00;;;;;;;;5019645;28;45567;-64
2023/05/03 18:59:20;;;;;;;;;4.00;4.00;;;;;;;;5019440;28;45428;-64
2023/05/03 19:01:45;;;;;;;;;4.00;4.00;;;;;;;;5013942;28;45226;-64
2023/05/03 19:04:12;;;;;;;;;5.67;5.00;;;;;;;;5019684;28;45455;-64
2023/05/03 19:06:37;;;;;;;;;3.00;3.00;;;;;;;;5019398;28;45252;-63
2023/05/03 19:09:02;;;;;;;;;7.00;7.00;;;;;;;;5019621;28;45273;-64
2023/05/03 19:11:28;;;;;;;;;4.67;4.00;;;;;;;;5018912;28;45284;-64
2023/05/03 19:13:53;;;;;;;;;6.67;5.00;;;;;;;;5019456;28;45283;-63
2023/05/03 19:16:18;;;;;;;;;7.00;5.33;;;;;;;;5018863;28;45195;-64
2023/05/03 19:18:44;;;;;;;;;5.00;5.00;;;;;;;;5019394;28;45350;-63
2023/05/03 19:21:11;;;;;;;;;4.33;4.33;;;;;;;;5019218;28;46053;-63
2023/05/03 19:23:37;;;;;;;;;5.67;5.33;;;;;;;;5018874;28;45287;-64
2023/05/03 19:26:02;;;;;;;;;6.00;5.67;;;;;;;;5013130;28;45331;-64
2023/05/03 19:28:27;;;;;;;;;6.00;5.00;;;;;;;;5017737;28;45442;-64